Time;durP1;ratioP1;P1;durP2;ratioP2;P2;SDS_P1;SDS_P2;PMS_P1;PMS_P2;Temp;Humidity;BMP_temperature;BMP_pressure;BME280_temperature;BME280_humidity;BME280_pressure;Samples;Min_cycle;Max_cycle;Signal;HPM_P1;HPM_P2
2022/01/14 00:02:13;;;;;;;24.05;11.75;;;;;;;;;;5083604;28;20058;-83
2022/01/14 00:04:39;;;;;;;24.50;13.30;;;;;;;;;;5100995;28;20409;-83
2022/01/14 00:07:05;;;;;;;22.83;12.48;;;;;;;;;;5085827;28;20032;-83
2022/01/14 00:09:33;;;;;;;24.50;12.02;;;;;;;;;;5106998;28;20024;-83
2022/01/14 00:11:59;;;;;;;21.65;11.52;;;;;;;;;;5088285;28;20035;-84
2022/01/14 00:16:54;;;;;;;23.15;12.32;;;;;;;;;;5109146;28;20119;-84
2022/01/14 00:19:20;;;;;;;24.38;12.52;;;;;;;;;;5106901;28;20110;-83
2022/01/14 00:21:45;;;;;;;25.83;12.52;;;;;;;;;;5083779;28;20038;-84
2022/01/14 00:31:41;;;;;;;25.15;12.80;;;;;;;;;;5085967;28;20028;-83
2022/01/14 00:32:38;;;;;;;22.33;11.57;;;;;;;;;;5099249;28;20064;-82
2022/01/14 00:35:04;;;;;;;21.45;11.73;;;;;;;;;;5086989;28;20185;-83
2022/01/14 00:37:29;;;;;;;24.52;12.32;;;;;;;;;;5084215;28;20118;-84
2022/01/14 00:39:58;;;;;;;22.02;11.02;;;;;;;;;;5083743;28;20046;-83
2022/01/14 00:42:23;;;;;;;22.40;11.52;;;;;;;;;;5101266;28;20035;-83
2022/01/14 00:44:48;;;;;;;20.65;12.05;;;;;;;;;;5104493;28;20398;-83
2022/01/14 00:47:14;;;;;;;22.10;11.60;;;;;;;;;;5085086;28;20028;-84
2022/01/14 00:49:39;;;;;;;25.30;12.20;;;;;;;;;;5088127;28;20456;-82
2022/01/14 00:52:05;;;;;;;23.13;11.85;;;;;;;;;;5085101;28;20043;-83
2022/01/14 00:54:30;;;;;;;23.52;11.35;;;;;;;;;;5105248;28;20028;-83
2022/01/14 00:57:15;;;;;;;25.02;12.52;;;;;;;;;;5085955;28;20024;-82
2022/01/14 00:59:40;;;;;;;23.40;11.63;;;;;;;;;;5107803;28;20031;-83
2022/01/14 01:02:06;;;;;;;22.58;11.40;;;;;;;;;;5105561;28;20036;-83
2022/01/14 01:04:36;;;;;;;25.48;12.13;;;;;;;;;;5090282;28;20110;-83
2022/01/14 01:07:04;;;;;;;22.55;11.73;;;;;;;;;;5100471;28;20571;-83
2022/01/14 01:09:30;;;;;;;21.10;11.32;;;;;;;;;;5084146;28;20106;-84
2022/01/14 01:15:09;;;;;;;21.38;10.95;;;;;;;;;;5054494;28;20047;-83
2022/01/14 01:17:35;;;;;;;21.02;10.60;;;;;;;;;;5096339;27;20169;-83
2022/01/14 01:20:09;;;;;;;20.90;10.65;;;;;;;;;;5085324;28;20118;-83
2022/01/14 01:22:35;;;;;;;22.92;11.32;;;;;;;;;;5086447;28;20031;-83
2022/01/14 01:25:00;;;;;;;22.52;10.95;;;;;;;;;;5082331;28;20040;-84
2022/01/14 01:27:26;;;;;;;22.67;10.93;;;;;;;;;;5085988;28;20031;-83
2022/01/14 01:30:10;;;;;;;20.80;11.13;;;;;;;;;;5098500;28;20071;-83
2022/01/14 01:32:35;;;;;;;22.55;10.80;;;;;;;;;;5082239;28;20516;-82
2022/01/14 01:35:01;;;;;;;24.42;12.30;;;;;;;;;;5089034;28;20063;-83
2022/01/14 01:37:26;;;;;;;23.48;11.65;;;;;;;;;;5085719;28;20032;-83
2022/01/14 01:39:52;;;;;;;20.27;11.10;;;;;;;;;;5096309;28;20471;-84
2022/01/14 01:42:23;;;;;;;26.30;12.07;;;;;;;;;;5095323;28;20031;-82
2022/01/14 01:44:50;;;;;;;25.42;11.15;;;;;;;;;;5084372;28;20032;-83
2022/01/14 01:47:15;;;;;;;23.42;11.57;;;;;;;;;;5100920;28;20030;-84
2022/01/14 01:49:40;;;;;;;27.23;12.43;;;;;;;;;;5079972;28;20382;-82
2022/01/14 01:52:06;;;;;;;22.50;10.90;;;;;;;;;;5084189;28;20027;-82
2022/01/14 01:54:32;;;;;;;22.83;11.05;;;;;;;;;;5078634;28;20020;-83
2022/01/14 01:56:58;;;;;;;21.67;11.18;;;;;;;;;;5100324;28;20896;-84
2022/01/14 01:59:25;;;;;;;23.95;11.50;;;;;;;;;;5097564;28;20023;-82
2022/01/14 02:01:51;;;;;;;20.63;11.07;;;;;;;;;;5080185;28;20036;-83
2022/01/14 02:04:18;;;;;;;23.48;11.57;;;;;;;;;;5080389;28;20396;-83
2022/01/14 02:06:43;;;;;;;20.35;10.80;;;;;;;;;;5080727;28;20482;-84
2022/01/14 02:09:10;;;;;;;22.17;11.05;;;;;;;;;;5079998;28;20026;-83
2022/01/14 02:11:35;;;;;;;22.35;10.75;;;;;;;;;;5100531;28;20110;-83
2022/01/14 02:14:11;;;;;;;26.10;12.05;;;;;;;;;;5102211;28;20114;-83
2022/01/14 02:17:00;;;;;;;23.88;10.75;;;;;;;;;;5083594;28;20043;-84
2022/01/14 02:19:29;;;;;;;20.42;10.07;;;;;;;;;;5100039;28;20038;-84
2022/01/14 02:27:08;;;;;;;23.87;11.43;;;;;;;;;;5102395;28;20088;-83
2022/01/14 02:29:34;;;;;;;26.08;11.68;;;;;;;;;;5080911;28;20036;-83
2022/01/14 02:31:59;;;;;;;23.55;11.50;;;;;;;;;;5085683;28;20073;-83
2022/01/14 02:34:25;;;;;;;21.10;10.48;;;;;;;;;;5080572;28;20036;-83
2022/01/14 02:36:51;;;;;;;22.92;11.25;;;;;;;;;;5106471;28;20516;-82
2022/01/14 02:39:18;;;;;;;21.65;11.63;;;;;;;;;;5084884;28;20020;-84
2022/01/14 02:41:45;;;;;;;21.67;11.25;;;;;;;;;;5088759;28;20450;-83
2022/01/14 02:44:19;;;;;;;22.13;11.25;;;;;;;;;;5101303;28;20043;-83
2022/01/14 02:47:06;;;;;;;23.67;11.40;;;;;;;;;;5081124;28;20032;-83
2022/01/14 02:49:34;;;;;;;23.80;11.60;;;;;;;;;;5096967;28;20094;-83
2022/01/14 02:52:04;;;;;;;22.38;10.95;;;;;;;;;;5103779;28;20366;-84
2022/01/14 02:54:39;;;;;;;23.17;11.10;;;;;;;;;;5076793;28;20031;-82
2022/01/14 02:57:09;;;;;;;19.67;9.80;;;;;;;;;;5098527;28;20020;-84
2022/01/14 02:59:37;;;;;;;19.23;10.20;;;;;;;;;;5083972;28;20374;-84
2022/01/14 03:02:06;;;;;;;19.77;10.52;;;;;;;;;;5082268;28;20076;-83
2022/01/14 03:04:36;;;;;;;22.13;11.77;;;;;;;;;;5100929;28;20556;-84
2022/01/14 03:07:02;;;;;;;21.35;10.98;;;;;;;;;;5083528;28;20056;-83
2022/01/14 03:09:28;;;;;;;22.33;11.40;;;;;;;;;;5076963;28;20024;-83
2022/01/14 03:11:58;;;;;;;23.77;11.20;;;;;;;;;;5080047;28;20035;-83
2022/01/14 03:14:24;;;;;;;22.77;11.45;;;;;;;;;;5085743;28;20059;-84
2022/01/14 03:16:51;;;;;;;19.77;10.15;;;;;;;;;;5082092;28;20036;-83
2022/01/14 03:19:21;;;;;;;20.52;10.60;;;;;;;;;;5086631;28;20080;-83
2022/01/14 03:21:50;;;;;;;19.13;10.95;;;;;;;;;;5086071;28;20149;-84
2022/01/14 03:26:49;;;;;;;21.05;10.27;;;;;;;;;;5103317;27;20055;-82
2022/01/14 03:29:16;;;;;;;23.48;12.25;;;;;;;;;;5084709;28;20039;-84
2022/01/14 03:31:42;;;;;;;17.05;9.38;;;;;;;;;;5104684;27;20020;-83
2022/01/14 03:34:08;;;;;;;19.13;10.73;;;;;;;;;;5087292;28;20066;-83
2022/01/14 03:36:33;;;;;;;20.98;10.55;;;;;;;;;;5082933;28;20052;-82
2022/01/14 03:38:59;;;;;;;20.02;10.02;;;;;;;;;;5081218;28;20474;-83
2022/01/14 03:41:24;;;;;;;23.13;11.18;;;;;;;;;;5080157;28;20413;-83
2022/01/14 03:43:50;;;;;;;21.63;11.35;;;;;;;;;;5082093;28;20062;-83
2022/01/14 03:46:15;;;;;;;21.08;10.73;;;;;;;;;;5099675;28;20439;-83
2022/01/14 03:48:40;;;;;;;20.23;11.02;;;;;;;;;;5098807;28;20468;-83
2022/01/14 03:51:06;;;;;;;27.58;11.93;;;;;;;;;;5084041;28;20055;-83
2022/01/14 03:53:32;;;;;;;20.55;10.85;;;;;;;;;;5079872;28;20107;-83
2022/01/14 03:55:58;;;;;;;22.58;11.63;;;;;;;;;;5094866;28;20413;-83
2022/01/14 03:58:24;;;;;;;20.13;10.38;;;;;;;;;;5106435;28;20475;-83
2022/01/14 04:00:49;;;;;;;22.52;11.07;;;;;;;;;;5077440;28;20039;-84
2022/01/14 04:03:14;;;;;;;20.70;10.57;;;;;;;;;;5082706;28;20047;-83
2022/01/14 04:05:40;;;;;;;20.85;11.43;;;;;;;;;;5098034;28;20478;-83
2022/01/14 04:08:05;;;;;;;22.60;11.63;;;;;;;;;;5105913;28;20034;-83
2022/01/14 04:10:31;;;;;;;22.65;12.15;;;;;;;;;;5102916;28;20161;-83
2022/01/14 04:13:02;;;;;;;19.42;10.73;;;;;;;;;;5078444;28;20117;-83
2022/01/14 04:15:37;;;;;;;21.45;11.90;;;;;;;;;;5080826;28;20057;-83
2022/01/14 04:18:15;;;;;;;23.55;11.18;;;;;;;;;;5095581;28;20032;-84
2022/01/14 04:20:41;;;;;;;21.23;11.85;;;;;;;;;;5100812;28;20523;-83
2022/01/14 04:23:08;;;;;;;21.30;11.15;;;;;;;;;;5077416;28;20024;-84
2022/01/14 04:25:35;;;;;;;20.67;10.55;;;;;;;;;;5073523;28;20042;-84
2022/01/14 04:28:02;;;;;;;19.67;10.65;;;;;;;;;;5096722;28;20052;-84
2022/01/14 04:30:27;;;;;;;21.67;12.05;;;;;;;;;;5080948;28;20123;-83
2022/01/14 04:32:53;;;;;;;20.08;11.38;;;;;;;;;;5078147;28;20548;-83
2022/01/14 04:35:19;;;;;;;22.38;12.10;;;;;;;;;;5079328;28;20389;-83
2022/01/14 04:37:44;;;;;;;21.58;10.80;;;;;;;;;;5080515;28;20115;-82
2022/01/14 04:40:12;;;;;;;20.38;10.48;;;;;;;;;;5083449;28;20073;-82
2022/01/14 04:42:41;;;;;;;21.27;11.15;;;;;;;;;;5081694;28;20130;-82
2022/01/14 04:45:07;;;;;;;18.67;11.18;;;;;;;;;;5102247;28;20481;-83
2022/01/14 04:47:44;;;;;;;22.52;10.93;;;;;;;;;;5084789;28;20027;-82
2022/01/14 04:50:13;;;;;;;18.83;10.65;;;;;;;;;;5080101;28;20039;-84
2022/01/14 04:52:39;;;;;;;21.92;11.45;;;;;;;;;;5098292;28;20039;-82
2022/01/14 04:55:07;;;;;;;19.70;11.05;;;;;;;;;;5099514;28;20051;-83
2022/01/14 04:57:32;;;;;;;21.60;11.73;;;;;;;;;;5086151;28;20035;-84
2022/01/14 04:59:58;;;;;;;20.50;10.93;;;;;;;;;;5104827;28;20385;-83
2022/01/14 05:02:24;;;;;;;18.50;9.68;;;;;;;;;;5086727;28;20109;-84
2022/01/14 05:04:49;;;;;;;21.23;10.80;;;;;;;;;;5086758;28;20029;-83
2022/01/14 05:07:24;;;;;;;19.58;11.02;;;;;;;;;;5087700;28;20027;-82
2022/01/14 05:09:59;;;;;;;17.83;9.80;;;;;;;;;;5080758;28;20028;-84
2022/01/14 05:12:24;;;;;;;21.17;11.32;;;;;;;;;;5084721;28;20038;-83
2022/01/14 05:14:50;;;;;;;18.25;10.43;;;;;;;;;;5089919;28;20420;-83
2022/01/14 05:17:15;;;;;;;17.50;10.15;;;;;;;;;;5081552;28;20516;-83
2022/01/14 05:19:40;;;;;;;18.40;10.10;;;;;;;;;;5080018;28;20432;-83
2022/01/14 05:22:06;;;;;;;21.10;11.13;;;;;;;;;;5089397;28;20039;-84
2022/01/14 05:24:31;;;;;;;19.33;10.30;;;;;;;;;;5086385;28;20019;-83
2022/01/14 05:26:56;;;;;;;17.55;9.98;;;;;;;;;;5093067;28;20035;-82
2022/01/14 05:29:22;;;;;;;18.80;10.40;;;;;;;;;;5098755;28;20561;-82
2022/01/14 05:31:50;;;;;;;18.92;10.32;;;;;;;;;;5104299;28;20031;-83
2022/01/14 05:34:16;;;;;;;18.42;10.63;;;;;;;;;;5080599;28;20039;-84
2022/01/14 05:36:41;;;;;;;20.33;10.85;;;;;;;;;;5086978;28;20020;-83
2022/01/14 05:39:07;;;;;;;19.48;10.07;;;;;;;;;;5101456;28;20108;-83
2022/01/14 05:41:33;;;;;;;20.85;11.00;;;;;;;;;;5105678;27;20488;-84
2022/01/14 05:43:59;;;;;;;17.92;10.63;;;;;;;;;;5087749;28;20153;-83
2022/01/14 05:46:24;;;;;;;19.58;10.63;;;;;;;;;;5103180;28;20382;-83
2022/01/14 05:48:49;;;;;;;19.73;10.90;;;;;;;;;;5080013;28;20032;-82
2022/01/14 05:51:15;;;;;;;18.75;10.32;;;;;;;;;;5084555;28;20059;-83
2022/01/14 05:53:40;;;;;;;19.92;11.00;;;;;;;;;;5099668;28;20060;-83
2022/01/14 05:56:06;;;;;;;19.10;9.95;;;;;;;;;;5080014;28;21565;-83
2022/01/14 05:58:31;;;;;;;19.23;10.40;;;;;;;;;;5086900;28;20416;-84
2022/01/14 06:00:56;;;;;;;17.38;10.07;;;;;;;;;;5100728;28;20030;-83
2022/01/14 06:03:22;;;;;;;21.30;10.55;;;;;;;;;;5099368;28;20042;-84
2022/01/14 06:05:48;;;;;;;18.73;9.85;;;;;;;;;;5082859;28;20474;-83
2022/01/14 06:08:13;;;;;;;18.65;10.32;;;;;;;;;;5090328;28;20485;-82
2022/01/14 06:10:39;;;;;;;20.30;10.68;;;;;;;;;;5078763;28;20425;-83
2022/01/14 06:13:04;;;;;;;18.73;10.23;;;;;;;;;;5089855;28;20477;-83
2022/01/14 06:15:29;;;;;;;18.88;10.55;;;;;;;;;;5086203;28;20059;-83
2022/01/14 06:17:55;;;;;;;19.27;11.23;;;;;;;;;;5085774;28;20023;-82
2022/01/14 06:20:20;;;;;;;18.45;10.30;;;;;;;;;;5082215;28;20073;-83
2022/01/14 06:22:46;;;;;;;19.33;10.18;;;;;;;;;;5089340;28;20057;-83
2022/01/14 06:25:11;;;;;;;19.00;10.15;;;;;;;;;;5083436;28;20031;-84
2022/01/14 06:27:37;;;;;;;20.25;10.57;;;;;;;;;;5079384;28;20494;-82
2022/01/14 06:30:07;;;;;;;20.33;10.93;;;;;;;;;;5085659;28;20443;-84
2022/01/14 06:32:35;;;;;;;19.88;10.35;;;;;;;;;;5085522;28;20038;-83
2022/01/14 06:35:00;;;;;;;18.58;10.15;;;;;;;;;;5078999;28;20052;-84
2022/01/14 06:37:26;;;;;;;21.75;10.88;;;;;;;;;;5096359;28;20426;-83
2022/01/14 06:39:52;;;;;;;22.23;11.93;;;;;;;;;;5100894;28;20087;-83
2022/01/14 06:42:17;;;;;;;18.05;9.77;;;;;;;;;;5079895;28;20362;-83
2022/01/14 06:44:43;;;;;;;20.73;11.05;;;;;;;;;;5078123;28;20020;-83
2022/01/14 06:47:08;;;;;;;19.83;10.73;;;;;;;;;;5088440;28;20080;-83
2022/01/14 06:49:33;;;;;;;20.50;11.20;;;;;;;;;;5098232;28;20030;-84
2022/01/14 06:51:59;;;;;;;20.42;10.73;;;;;;;;;;5081896;28;20038;-84
2022/01/14 06:54:24;;;;;;;20.10;10.48;;;;;;;;;;5104834;28;20027;-84
2022/01/14 06:56:50;;;;;;;20.80;10.90;;;;;;;;;;5081627;28;20123;-84
2022/01/14 06:59:15;;;;;;;18.23;10.35;;;;;;;;;;5082232;28;20020;-83
2022/01/14 07:01:40;;;;;;;18.75;10.00;;;;;;;;;;5099049;28;20030;-83
2022/01/14 07:04:06;;;;;;;21.35;11.48;;;;;;;;;;5103596;28;20031;-83
2022/01/14 07:06:31;;;;;;;20.75;11.30;;;;;;;;;;5084312;28;20107;-83
2022/01/14 07:08:56;;;;;;;21.58;10.85;;;;;;;;;;5082526;28;20536;-84
2022/01/14 07:11:26;;;;;;;19.55;10.82;;;;;;;;;;5105755;28;20026;-83
2022/01/14 07:13:52;;;;;;;17.80;10.68;;;;;;;;;;5102853;28;20565;-84
2022/01/14 07:16:17;;;;;;;21.02;11.23;;;;;;;;;;5083524;28;20095;-84
2022/01/14 07:18:45;;;;;;;20.45;11.13;;;;;;;;;;5082001;28;20074;-83
2022/01/14 07:21:11;;;;;;;17.15;10.05;;;;;;;;;;5079677;28;20032;-83
2022/01/14 07:23:36;;;;;;;18.98;10.32;;;;;;;;;;5072128;28;20120;-84
2022/01/14 07:26:01;;;;;;;18.98;9.90;;;;;;;;;;5093708;28;20098;-83
2022/01/14 07:28:27;;;;;;;18.40;10.75;;;;;;;;;;5093337;28;20994;-84
2022/01/14 07:30:52;;;;;;;19.08;10.30;;;;;;;;;;5085671;28;20027;-84
2022/01/14 07:33:17;;;;;;;18.63;10.45;;;;;;;;;;5094328;28;20027;-84
2022/01/14 07:35:43;;;;;;;18.95;10.20;;;;;;;;;;5077244;28;20048;-84
2022/01/14 07:38:09;;;;;;;18.13;10.07;;;;;;;;;;5093377;28;20023;-83
2022/01/14 07:40:34;;;;;;;17.40;9.65;;;;;;;;;;5075920;28;20314;-83
2022/01/14 07:42:59;;;;;;;19.42;10.20;;;;;;;;;;5088046;28;20118;-85
2022/01/14 07:45:25;;;;;;;19.42;9.98;;;;;;;;;;5082213;28;20027;-84
2022/01/14 07:47:50;;;;;;;19.40;10.00;;;;;;;;;;5083765;28;20035;-83
2022/01/14 07:50:15;;;;;;;16.33;9.77;;;;;;;;;;5074721;28;20028;-84
2022/01/14 07:52:41;;;;;;;16.73;9.48;;;;;;;;;;5077845;28;20501;-84
2022/01/14 07:55:06;;;;;;;18.85;10.45;;;;;;;;;;5075245;28;20442;-84
2022/01/14 07:57:32;;;;;;;16.45;9.40;;;;;;;;;;5070729;28;20501;-84
2022/01/14 07:59:57;;;;;;;16.30;9.27;;;;;;;;;;5073027;28;20758;-84
2022/01/14 08:02:25;;;;;;;16.83;9.05;;;;;;;;;;5078928;28;20039;-85
2022/01/14 08:04:52;;;;;;;17.33;9.55;;;;;;;;;;5077384;28;20027;-83
2022/01/14 08:07:22;;;;;;;15.93;9.82;;;;;;;;;;5090417;28;20024;-84
2022/01/14 08:09:47;;;;;;;21.05;9.43;;;;;;;;;;5087407;28;20023;-83
2022/01/14 08:12:13;;;;;;;16.23;9.95;;;;;;;;;;5080488;28;20027;-84
2022/01/14 08:14:38;;;;;;;19.17;10.30;;;;;;;;;;5089216;28;20107;-82
2022/01/14 08:17:05;;;;;;;20.02;9.60;;;;;;;;;;5091397;28;20413;-84
2022/01/14 08:19:33;;;;;;;19.38;10.52;;;;;;;;;;5102652;28;20243;-83
2022/01/14 08:22:03;;;;;;;18.73;9.50;;;;;;;;;;5087731;28;20035;-84
2022/01/14 08:24:29;;;;;;;17.85;10.35;;;;;;;;;;5082498;28;20032;-84
2022/01/14 08:26:55;;;;;;;16.05;9.50;;;;;;;;;;5108887;28;20030;-84
2022/01/14 08:29:20;;;;;;;16.13;9.63;;;;;;;;;;5081292;28;20053;-85
2022/01/14 08:31:45;;;;;;;18.83;10.02;;;;;;;;;;5101801;28;20055;-85
2022/01/14 08:34:11;;;;;;;16.10;8.65;;;;;;;;;;5085232;28;20083;-84
2022/01/14 08:36:37;;;;;;;15.00;9.60;;;;;;;;;;5091946;28;20387;-84
2022/01/14 08:39:02;;;;;;;16.60;9.30;;;;;;;;;;5089172;28;20094;-83
2022/01/14 08:41:29;;;;;;;16.25;9.20;;;;;;;;;;5105163;28;20027;-83
2022/01/14 08:43:57;;;;;;;16.55;9.30;;;;;;;;;;5085457;28;20028;-82
2022/01/14 08:46:23;;;;;;;15.55;8.88;;;;;;;;;;5099573;28;20039;-85
2022/01/14 08:48:48;;;;;;;15.05;8.73;;;;;;;;;;5082906;28;20035;-84
2022/01/14 08:51:13;;;;;;;15.70;9.35;;;;;;;;;;5099931;28;20036;-85
2022/01/14 08:53:39;;;;;;;15.60;8.75;;;;;;;;;;5079161;28;20032;-85
2022/01/14 08:56:04;;;;;;;14.68;8.75;;;;;;;;;;5078256;28;20390;-84
2022/01/14 08:58:30;;;;;;;15.95;8.73;;;;;;;;;;5084664;28;20031;-85
2022/01/14 09:00:55;;;;;;;15.63;9.23;;;;;;;;;;5077970;28;20028;-83
2022/01/14 09:03:20;;;;;;;19.27;9.90;;;;;;;;;;5074565;28;20158;-84
2022/01/14 09:05:46;;;;;;;13.10;7.88;;;;;;;;;;5098836;28;20039;-84
2022/01/14 09:08:11;;;;;;;16.45;9.38;;;;;;;;;;5075301;28;20039;-83
2022/01/14 09:10:37;;;;;;;16.92;8.90;;;;;;;;;;5087051;28;20074;-84
2022/01/14 09:13:02;;;;;;;17.90;9.73;;;;;;;;;;5108485;28;20038;-83
2022/01/14 09:15:28;;;;;;;14.15;9.25;;;;;;;;;;5093654;28;20081;-84
2022/01/14 09:17:53;;;;;;;20.45;10.80;;;;;;;;;;5083515;28;20111;-84
2022/01/14 09:20:19;;;;;;;17.75;10.13;;;;;;;;;;5084087;28;20093;-83
2022/01/14 09:22:47;;;;;;;18.02;10.13;;;;;;;;;;5087362;28;20485;-84
2022/01/14 09:25:13;;;;;;;19.10;10.43;;;;;;;;;;5081923;28;20132;-84
2022/01/14 09:27:38;;;;;;;18.13;10.60;;;;;;;;;;5077688;28;20139;-84
2022/01/14 09:30:05;;;;;;;21.20;11.43;;;;;;;;;;5077410;28;20038;-83
2022/01/14 09:32:31;;;;;;;18.05;9.88;;;;;;;;;;5076922;28;20016;-82
2022/01/14 09:34:56;;;;;;;19.35;10.93;;;;;;;;;;5076012;28;20034;-83
2022/01/14 09:37:22;;;;;;;16.63;10.18;;;;;;;;;;5083609;28;20027;-85
2022/01/14 09:39:47;;;;;;;16.23;9.60;;;;;;;;;;5078043;28;20563;-85
2022/01/14 09:42:14;;;;;;;17.38;10.75;;;;;;;;;;5079224;28;20111;-83
2022/01/14 09:44:41;;;;;;;19.10;10.30;;;;;;;;;;5083982;28;20122;-84
2022/01/14 09:47:07;;;;;;;19.45;11.07;;;;;;;;;;5078136;28;20036;-85
2022/01/14 09:49:33;;;;;;;22.40;12.23;;;;;;;;;;5074466;28;20028;-85
2022/01/14 09:51:58;;;;;;;19.88;11.95;;;;;;;;;;5073613;28;20039;-85
2022/01/14 09:54:24;;;;;;;17.98;10.90;;;;;;;;;;5086439;28;20474;-83
2022/01/14 09:56:49;;;;;;;18.65;10.30;;;;;;;;;;5088691;28;20097;-83
2022/01/14 09:59:17;;;;;;;19.02;11.13;;;;;;;;;;5088129;28;20188;-83
2022/01/14 10:01:47;;;;;;;20.33;9.80;;;;;;;;;;5083914;28;20168;-86
2022/01/14 10:04:18;;;;;;;18.70;10.80;;;;;;;;;;5086016;28;20107;-84
2022/01/14 10:06:57;;;;;;;18.38;10.88;;;;;;;;;;5084560;28;20024;-86
2022/01/14 10:09:30;;;;;;;18.80;10.25;;;;;;;;;;5084326;28;20028;-85
2022/01/14 10:12:08;;;;;;;19.00;10.90;;;;;;;;;;5094553;28;20387;-84
2022/01/14 10:14:37;;;;;;;17.35;10.07;;;;;;;;;;5083349;28;20022;-83
2022/01/14 10:17:07;;;;;;;21.50;11.25;;;;;;;;;;5090466;28;20054;-83
2022/01/14 10:19:39;;;;;;;18.63;10.25;;;;;;;;;;5089238;28;20035;-83
2022/01/14 10:22:31;;;;;;;18.63;10.65;;;;;;;;;;5085754;28;20481;-84
2022/01/14 10:25:03;;;;;;;19.02;10.52;;;;;;;;;;5088598;28;20039;-84
2022/01/14 10:27:44;;;;;;;18.58;10.73;;;;;;;;;;5094810;28;20074;-85
2022/01/14 10:30:15;;;;;;;20.77;10.90;;;;;;;;;;5090595;28;20043;-84
2022/01/14 10:32:42;;;;;;;19.90;10.90;;;;;;;;;;5089004;28;20110;-83
2022/01/14 10:35:14;;;;;;;17.77;9.38;;;;;;;;;;5087792;28;20031;-83
2022/01/14 10:37:39;;;;;;;15.10;9.35;;;;;;;;;;5088543;28;20547;-83
2022/01/14 10:40:26;;;;;;;18.58;9.82;;;;;;;;;;5111831;28;20094;-84
2022/01/14 10:43:06;;;;;;;16.38;9.43;;;;;;;;;;5086074;28;20111;-84
2022/01/14 10:45:32;;;;;;;18.80;9.88;;;;;;;;;;5085834;28;20051;-84
2022/01/14 10:48:04;;;;;;;19.60;10.02;;;;;;;;;;5085754;28;20110;-84
2022/01/14 10:51:06;;;;;;;18.38;9.90;;;;;;;;;;5086178;28;20035;-84
2022/01/14 10:53:35;;;;;;;19.92;10.13;;;;;;;;;;5083684;28;20032;-85
2022/01/14 10:56:12;;;;;;;19.80;9.82;;;;;;;;;;5089118;28;20024;-84
2022/01/14 10:58:47;;;;;;;16.67;9.43;;;;;;;;;;5090583;28;20481;-85
2022/01/14 11:01:16;;;;;;;18.30;10.02;;;;;;;;;;5086535;28;20049;-83
2022/01/14 11:03:56;;;;;;;16.83;10.23;;;;;;;;;;5086321;28;20016;-83
2022/01/14 11:06:32;;;;;;;17.45;9.93;;;;;;;;;;5087957;28;20036;-85
2022/01/14 11:09:01;;;;;;;18.33;10.45;;;;;;;;;;5103644;28;20368;-83
2022/01/14 11:11:29;;;;;;;20.25;10.50;;;;;;;;;;5082798;28;20503;-84
2022/01/14 11:13:54;;;;;;;18.33;10.27;;;;;;;;;;5085422;28;20015;-84
2022/01/14 11:16:20;;;;;;;19.17;10.75;;;;;;;;;;5082557;28;20496;-83
2022/01/14 11:18:47;;;;;;;21.52;11.48;;;;;;;;;;5094040;28;20030;-86
2022/01/14 11:23:57;;;;;;;22.48;11.98;;;;;;;;;;5100798;28;20088;-84
2022/01/14 11:26:29;;;;;;;20.50;10.70;;;;;;;;;;5087748;28;20043;-83
2022/01/14 11:29:01;;;;;;;21.80;11.02;;;;;;;;;;5079715;28;20126;-84
2022/01/14 11:31:39;;;;;;;19.63;11.60;;;;;;;;;;5069249;28;20042;-84
2022/01/14 11:34:29;;;;;;;20.55;11.10;;;;;;;;;;5078812;28;20028;-82
2022/01/14 11:36:57;;;;;;;21.83;11.25;;;;;;;;;;5052469;28;20457;-85
2022/01/14 11:39:28;;;;;;;19.02;10.57;;;;;;;;;;5060085;28;20398;-83
2022/01/14 11:41:59;;;;;;;20.98;12.27;;;;;;;;;;5062637;28;20020;-85
2022/01/14 11:45:02;;;;;;;23.02;12.38;;;;;;;;;;5058667;28;20075;-85
2022/01/14 11:47:28;;;;;;;22.65;11.98;;;;;;;;;;4973500;28;20034;-83
2022/01/14 11:49:56;;;;;;;17.85;10.23;;;;;;;;;;5050629;28;20036;-85
2022/01/14 11:52:42;;;;;;;22.02;11.70;;;;;;;;;;5064513;28;20025;-84
2022/01/14 11:55:30;;;;;;;18.20;10.65;;;;;;;;;;5068607;28;20035;-83
2022/01/14 11:57:58;;;;;;;23.70;12.07;;;;;;;;;;5051615;28;20044;-84
2022/01/14 12:00:30;;;;;;;21.20;11.15;;;;;;;;;;5064709;28;20037;-84
2022/01/14 12:03:26;;;;;;;23.13;11.45;;;;;;;;;;5072273;28;20394;-83
2022/01/14 12:06:07;;;;;;;22.90;12.48;;;;;;;;;;5067862;28;20390;-84
2022/01/14 12:08:34;;;;;;;19.90;11.65;;;;;;;;;;5066952;28;20035;-84
2022/01/14 12:11:09;;;;;;;20.33;11.35;;;;;;;;;;5067992;28;20162;-84
2022/01/14 12:13:53;;;;;;;22.23;11.98;;;;;;;;;;5085823;28;20510;-84
2022/01/14 12:16:35;;;;;;;19.55;11.30;;;;;;;;;;5070796;28;21031;-85
2022/01/14 12:19:03;;;;;;;19.23;11.38;;;;;;;;;;5069011;28;20115;-84
2022/01/14 12:21:38;;;;;;;18.02;10.90;;;;;;;;;;5067688;28;20550;-83
2022/01/14 12:24:18;;;;;;;22.88;12.20;;;;;;;;;;5067540;28;20552;-84
2022/01/14 12:27:08;;;;;;;21.45;12.20;;;;;;;;;;5067078;28;20033;-83
2022/01/14 12:29:50;;;;;;;23.77;12.60;;;;;;;;;;5087726;28;20102;-84
2022/01/14 12:32:33;;;;;;;21.10;11.80;;;;;;;;;;5064804;28;20036;-83
2022/01/14 12:35:00;;;;;;;23.70;12.48;;;;;;;;;;5079798;28;20115;-83
2022/01/14 12:37:29;;;;;;;20.67;11.77;;;;;;;;;;5068109;28;20090;-84
2022/01/14 12:39:56;;;;;;;20.20;11.80;;;;;;;;;;5081630;28;20024;-85
2022/01/14 12:42:23;;;;;;;23.67;13.65;;;;;;;;;;5066444;28;21695;-84
2022/01/14 12:44:52;;;;;;;22.92;13.75;;;;;;;;;;5064967;28;20125;-84
2022/01/14 12:47:32;;;;;;;21.83;12.18;;;;;;;;;;5077288;28;20490;-85
2022/01/14 12:50:06;;;;;;;24.73;13.32;;;;;;;;;;5067089;28;20486;-85
2022/01/14 12:52:38;;;;;;;21.45;13.10;;;;;;;;;;5066714;28;20031;-84
2022/01/14 12:55:13;;;;;;;21.83;13.03;;;;;;;;;;5068096;28;20028;-84
2022/01/14 12:57:38;;;;;;;23.20;13.45;;;;;;;;;;5064796;28;20692;-85
2022/01/14 13:00:05;;;;;;;20.85;12.77;;;;;;;;;;5063797;28;20115;-85
2022/01/14 13:02:31;;;;;;;22.88;13.05;;;;;;;;;;5063047;28;20107;-84
2022/01/14 13:04:59;;;;;;;26.17;14.57;;;;;;;;;;5069112;28;20115;-83
2022/01/14 13:07:25;;;;;;;21.08;12.40;;;;;;;;;;5063997;28;20036;-84
2022/01/14 13:09:52;;;;;;;25.95;14.00;;;;;;;;;;5081385;28;20029;-84
2022/01/14 13:12:20;;;;;;;27.08;14.05;;;;;;;;;;5062828;28;20025;-85
2022/01/14 13:15:00;;;;;;;29.92;14.10;;;;;;;;;;5064378;28;20044;-83
2022/01/14 13:17:30;;;;;;;24.83;13.25;;;;;;;;;;5064388;28;20402;-83
2022/01/14 13:19:58;;;;;;;26.83;14.25;;;;;;;;;;5067547;28;21405;-85
2022/01/14 13:22:23;;;;;;;24.52;13.40;;;;;;;;;;5075834;28;20024;-84
2022/01/14 13:24:54;;;;;;;24.60;14.00;;;;;;;;;;5062793;28;20033;-83
2022/01/14 13:27:22;;;;;;;26.02;14.38;;;;;;;;;;5067769;28;20441;-84
2022/01/14 13:30:00;;;;;;;24.80;14.65;;;;;;;;;;5086192;28;20032;-84
2022/01/14 13:32:34;;;;;;;27.13;14.00;;;;;;;;;;5082624;28;20043;-84
2022/01/14 13:35:27;;;;;;;24.40;14.20;;;;;;;;;;5086281;28;20034;-84
2022/01/14 13:37:56;;;;;;;25.25;13.57;;;;;;;;;;5057602;28;20174;-85
2022/01/14 13:40:24;;;;;;;26.80;14.85;;;;;;;;;;5087622;28;20367;-83
2022/01/14 13:43:01;;;;;;;25.05;14.23;;;;;;;;;;5089536;28;20049;-84
2022/01/14 13:45:26;;;;;;;27.60;14.98;;;;;;;;;;5090577;28;20054;-84
2022/01/14 13:48:09;;;;;;;27.13;15.38;;;;;;;;;;5094112;28;20016;-84
2022/01/14 13:50:48;;;;;;;28.08;15.48;;;;;;;;;;5090276;28;20031;-85
2022/01/14 13:53:16;;;;;;;25.45;13.98;;;;;;;;;;5086215;28;20118;-84
2022/01/14 13:55:49;;;;;;;24.30;14.10;;;;;;;;;;5089220;28;20024;-84
2022/01/14 13:58:27;;;;;;;29.27;14.43;;;;;;;;;;5104758;28;20036;-84
2022/01/14 14:00:55;;;;;;;27.30;15.35;;;;;;;;;;5086686;28;20028;-84
2022/01/14 14:03:25;;;;;;;24.17;14.00;;;;;;;;;;5084778;28;20034;-84
2022/01/14 14:05:58;;;;;;;27.65;15.73;;;;;;;;;;5084096;28;20038;-85
2022/01/14 14:11:59;;;;;;;26.23;15.05;;;;;;;;;;5093554;28;20032;-83
2022/01/14 14:16:46;;;;;;;28.77;15.70;;;;;;;;;;5102645;28;20070;-84
2022/01/14 14:19:11;;;;;;;27.70;16.02;;;;;;;;;;5091394;28;20074;-83
2022/01/14 14:21:39;;;;;;;27.88;15.68;;;;;;;;;;5079829;28;20020;-85
2022/01/14 14:24:08;;;;;;;28.77;16.48;;;;;;;;;;5086964;28;20019;-84
2022/01/14 14:26:34;;;;;;;32.30;17.30;;;;;;;;;;5090837;28;20126;-83
2022/01/14 14:29:22;;;;;;;31.25;17.20;;;;;;;;;;5085419;28;20169;-85
2022/01/14 14:31:48;;;;;;;29.98;15.70;;;;;;;;;;5086745;28;20053;-83
2022/01/14 14:34:14;;;;;;;31.58;17.25;;;;;;;;;;5103216;28;20032;-83
2022/01/14 14:36:41;;;;;;;30.20;16.40;;;;;;;;;;5085751;28;20028;-85
2022/01/14 14:39:06;;;;;;;30.52;17.30;;;;;;;;;;5088186;28;20024;-84
2022/01/14 14:41:32;;;;;;;33.03;17.73;;;;;;;;;;5086977;28;20032;-83
2022/01/14 14:43:58;;;;;;;31.73;16.92;;;;;;;;;;5082426;28;20028;-83
2022/01/14 14:46:23;;;;;;;31.60;17.23;;;;;;;;;;5090232;28;20401;-84
2022/01/14 14:48:49;;;;;;;31.95;17.63;;;;;;;;;;5102298;28;20028;-85
2022/01/14 14:51:15;;;;;;;31.50;17.05;;;;;;;;;;5084408;28;20022;-86
2022/01/14 14:53:41;;;;;;;31.60;17.20;;;;;;;;;;5085098;28;20058;-83
2022/01/14 14:56:10;;;;;;;30.10;17.30;;;;;;;;;;5085051;28;20032;-85